NA25 weather

Holen Aerial Spray Airstrip
Bantry, North Dakota, United States

Public forecast

Using degrees Fahrenheit for public forecast. Weather courtesy of forecast.io.

METAR (pilot weather report)

Closest report is Rugby Municipal Airport, 25.9 nm (47.9 km) ESE. Retrieved 2019/07/20 19:35 UTC (6 minutes ago):

KRUG 201935Z AUTO 32015KT 10SM CLR 24/10 A2998 RMK AO2

TAF (pilot weather forecast)

Forecast is more than 12 hours old.

Closest forecast is Minot Air Force Base, 28.5 nm (52.8 km) W. Retrieved 2019/07/19 17:09 UTC (1 day ago):

TAF KMIB 191700Z 1917/2023 29015G20KT 9999 SKC QNH2976INS BECMG 2000/2001 28009KT 9999 FEW150 QNH2980INS TX25/1922Z TN12/2011Z LAST NO AMDS AFT 1917 NEXT 2909